Latest Weather Observations for Norfolk Island

IDN60801

Issued at 9:02 am EDT Sunday 29 March 2015 (issued every 30 minutes, with the page automatically refreshed every 10 minutes)

About weather observations | Map of weather stations | Latest weather observations for NSW | Other Formats
Station Details ID: 200288 Name: NORFOLK ISLAND AERO Lat: -29.04 Lon: 167.94 Height: 111.73 m
Data from the previous 72 hours. | See also: Recent months at Norfolk Island
Date/Time
EDT
Temp
°C
App
Temp
°C
Dew
Point
Rel
Hum
%
Delta-T
°C
Wind Press
QNH
hPa
Press
MSL
hPa
Rain
since 9 am
mm
Dir
 
Spd
km/h
Gust
km/h
Spd
kts
Gust
kts
29/08:30am 21.7 20.7 17.5 77 2.6 SSE 19 30 10 16 1019.6 - 2.0
29/08:00am 21.6 20.9 17.4 77 2.6 S 17 26 9 14 1019.5 - 2.0
29/07:30am 21.6 21.1 17.7 78 2.4 S 17 26 9 14 1019.1 - 2.0
29/07:00am 21.5 20.4 17.8 79 2.3 S 20 28 11 15 1018.7 - 2.0
29/06:30am 21.2 21.2 18.0 82 2.0 SSE 15 20 8 11 1018.5 - 2.0
29/06:01am 20.9 21.2 18.8 88 1.3 S 15 20 8 11 1018.2 - 2.0
29/06:00am 21.0 21.2 18.6 86 1.5 S 15 20 8 11 1018.1 - 2.0
29/05:41am 20.9 21.2 19.5 92 0.9 S 17 26 9 14 1017.9 - 2.0
29/05:30am 20.7 20.9 19.4 92 0.8 S 17 26 9 14 1017.8 1017.4 2.0
29/05:17am 20.8 20.0 19.2 90 1.0 S 22 32 12 17 1017.7 - 1.8
29/05:00am 21.2 21.7 20.1 93 0.7 S 17 24 9 13 1017.6 - 1.4
29/04:32am 21.3 21.3 20.2 93 0.7 S 20 26 11 14 1017.2 - 1.4
29/04:30am 21.4 21.7 20.3 93 0.7 S 19 26 10 14 1017.2 - 1.4
29/04:15am 21.5 22.7 20.6 95 0.6 S 15 20 8 11 1017.0 - 1.4
29/04:00am 21.5 22.3 20.7 95 0.5 S 17 24 9 13 1017.0 - 1.2
29/03:51am 21.6 22.4 20.7 95 0.6 S 17 26 9 14 1017.0 - 0.8
29/03:35am 21.9 23.5 20.7 93 0.8 SW 13 24 7 13 1016.9 - 0.0
29/03:30am 22.1 24.2 20.9 93 0.8 WSW 11 15 6 8 1016.8 - 0.0
29/03:04am 21.9 23.2 20.2 90 1.1 WSW 13 17 7 9 1016.8 - 0.0
29/03:00am 21.9 23.3 20.4 91 1.0 WSW 13 17 7 9 1016.8 - 0.0
29/02:30am 22.4 24.5 21.0 92 0.9 W 11 15 6 8 1016.8 1016.3 0.0
29/02:14am 22.3 24.3 20.8 91 1.0 WSW 11 15 6 8 1016.9 - 0.0
29/02:00am 22.1 24.0 20.6 91 1.0 W 11 13 6 7 1017.0 - 0.0
29/01:30am 22.1 23.7 20.7 92 0.9 WSW 13 17 7 9 1017.3 - 0.0
29/01:00am 22.0 23.9 20.5 91 1.0 WSW 11 13 6 7 1017.5 - 0.0
29/12:30am 22.2 23.8 20.7 91 1.0 W 13 17 7 9 1017.8 - 0.0
29/12:00am 22.0 24.4 20.9 93 0.7 WNW 9 13 5 7 1018.1 - 0.0
 
Date/Time
EDT
Temp
°C
App
Temp
°C
Dew
Point
Rel
Hum
%
Delta-T
°C
Wind Press
QNH
hPa
Press
MSL
hPa
Rain
since 9 am
mm
Dir
 
Spd
km/h
Gust
km/h
Spd
kts
Gust
kts
28/11:49pm 21.9 24.3 20.8 93 0.7 WNW 9 13 5 7 1018.2 - 0.0
28/11:34pm 22.4 24.3 20.6 89 1.2 WNW 11 17 6 9 1018.4 - 0.0
28/11:30pm 22.5 24.3 20.3 87 1.4 WNW 11 15 6 8 1018.4 1018.0 0.0
28/11:00pm 22.4 24.1 20.1 87 1.5 WNW 11 15 6 8 1018.6 - 0.0
28/10:30pm 22.6 24.2 20.0 85 1.7 WNW 11 13 6 7 1018.7 - 0.0
28/10:00pm 22.3 23.7 19.6 85 1.7 WNW 11 17 6 9 1018.8 - 0.0
28/09:30pm 21.9 23.6 19.4 86 1.6 WNW 9 11 5 6 1018.8 - 0.0
28/09:00pm 21.4 23.3 19.0 86 1.5 W 7 9 4 5 1018.9 - 0.0
28/08:30pm 21.7 23.6 19.0 84 1.7 W 7 9 4 5 1018.7 1018.3 0.0
28/08:00pm 21.3 23.0 18.6 84 1.7 W 7 11 4 6 1018.5 - 0.0
28/07:30pm 21.8 23.5 18.5 81 2.1 W 7 9 4 5 1018.4 - 0.0
28/07:00pm 21.9 22.8 18.4 80 2.2 WSW 11 13 6 7 1018.3 - 0.0
28/06:30pm 21.7 22.9 18.2 80 2.2 W 9 11 5 6 1018.2 - 0.0
28/06:00pm 22.3 22.6 17.8 75 2.8 W 13 17 7 9 1018.0 - 0.0
28/05:30pm 22.6 22.3 17.4 72 3.2 WSW 15 19 8 10 1017.9 1017.5 0.0
28/05:00pm 23.2 22.7 16.9 67 3.9 WSW 15 19 8 10 1017.9 - 0.0
28/04:30pm 23.7 23.0 16.3 63 4.5 WSW 15 20 8 11 1017.8 - 0.0
28/04:00pm 23.8 22.4 15.5 59 5.0 W 17 20 9 11 1017.6 - 0.0
28/03:30pm 23.5 21.7 14.4 56 5.4 W 17 22 9 12 1017.6 - 0.0
28/03:00pm 24.4 23.1 14.9 55 5.7 W 15 19 8 10 1017.6 - 0.0
28/02:30pm 24.0 22.6 14.6 55 5.6 WSW 15 20 8 11 1017.6 1017.1 0.0
28/02:00pm 24.6 23.6 14.7 54 5.9 WSW 13 20 7 11 1017.9 - 0.0
28/01:30pm 24.2 22.0 13.4 51 6.3 W 17 20 9 11 1018.1 - 0.0
28/01:00pm 24.0 21.4 13.2 50 6.3 WSW 19 26 10 14 1018.3 - 0.0
28/12:30pm 24.2 21.5 12.8 49 6.6 W 19 24 10 13 1018.4 - 0.0
28/12:00pm 24.2 21.6 11.9 46 7.0 W 17 22 9 12 1018.7 - 0.0
28/11:30am 23.9 20.9 11.9 47 6.8 WSW 19 26 10 14 1018.9 1018.5 0.0
28/11:00am 23.7 20.7 11.9 47 6.7 WSW 19 24 10 13 1019.2 - 0.0
28/10:30am 23.7 21.0 11.7 47 6.8 WSW 17 24 9 13 1019.3 - 0.0
28/10:00am 23.4 20.6 11.3 46 6.8 WSW 17 20 9 11 1019.5 - 0.0
28/09:30am 23.0 20.5 11.0 46 6.7 WSW 15 19 8 10 1019.5 - 0.0
28/08:30am 22.6 21.3 11.1 48 6.4 WNW 9 13 5 7 1019.4 1019.0 0.0
28/08:00am 22.3 21.4 11.2 49 6.2 WNW 7 9 4 5 1019.2 - 0.0
28/07:30am 21.5 21.3 11.9 54 5.4 WNW 4 9 2 5 1019.1 - 0.0
28/07:00am 19.9 19.3 12.4 62 4.2 W 7 9 4 5 1018.7 - 0.0
28/06:30am 19.6 19.9 10.8 56 4.8 CALM 0 0 0 0 1018.6 - 0.0
28/06:00am 18.6 17.9 11.3 62 4.0 WSW 6 7 3 4 1018.4 - 0.0
28/05:30am 20.0 18.1 10.6 54 5.1 SW 11 17 6 9 1018.1 1017.7 0.0
28/05:00am 18.8 17.0 10.7 59 4.4 SW 11 13 6 7 1017.9 - 0.0
28/04:30am 18.6 17.4 11.5 63 3.9 WSW 9 13 5 7 1017.6 - 0.0
28/04:00am 18.3 16.8 10.7 61 4.1 WNW 9 11 5 6 1017.5 - 0.0
28/03:30am 18.5 17.6 11.2 62 4.0 W 7 13 4 7 1017.4 - 0.0
28/03:00am 18.8 17.5 11.1 61 4.2 W 9 11 5 6 1017.5 - 0.0
28/02:30am 18.8 17.0 10.7 59 4.4 WSW 11 15 6 8 1017.7 1017.2 0.0
28/02:00am 18.3 17.7 12.2 67 3.4 W 7 9 4 5 1017.9 - 0.0
28/01:30am 18.6 18.1 12.5 67 3.4 W 7 13 4 7 1018.0 - 0.0
28/01:00am 19.5 18.2 12.4 63 4.0 WSW 11 15 6 8 1018.4 - 0.0
28/12:30am 19.4 18.2 12.9 66 3.7 SW 11 13 6 7 1018.5 - 0.0
28/12:00am 19.8 19.1 13.3 66 3.7 SW 9 11 5 6 1018.8 - 0.0
 
Date/Time
EDT
Temp
°C
App
Temp
°C
Dew
Point
Rel
Hum
%
Delta-T
°C
Wind Press
QNH
hPa
Press
MSL
hPa
Rain
since 9 am
mm
Dir
 
Spd
km/h
Gust
km/h
Spd
kts
Gust
kts
27/11:30pm 20.1 19.5 13.5 66 3.8 SSW 9 11 5 6 1019.0 1018.6 0.0
27/11:00pm 20.4 20.0 14.2 67 3.6 SW 9 13 5 7 1019.2 - 0.0
27/10:30pm 20.6 20.4 14.6 68 3.5 SSW 9 13 5 7 1019.3 - 0.0
27/10:00pm 21.1 20.9 16.7 76 2.7 SW 13 17 7 9 1019.5 - 0.0
27/09:30pm 21.4 21.7 17.9 80 2.2 SW 13 19 7 10 1019.4 - 0.0
27/09:00pm 21.8 21.4 18.1 79 2.3 SSW 17 26 9 14 1019.6 - 0.0
27/08:30pm 22.2 22.4 18.5 79 2.3 SSW 15 20 8 11 1019.5 1019.1 0.0
27/08:00pm 22.3 22.3 19.0 81 2.1 SSW 17 22 9 12 1019.3 - 0.0
27/07:30pm 22.1 22.6 18.4 79 2.3 W 13 17 7 9 1019.1 - 0.0
27/07:00pm 22.0 22.0 18.0 78 2.5 W 15 19 8 10 1018.9 - 0.0
27/06:30pm 22.1 21.8 17.4 74 2.9 W 15 19 8 10 1018.6 - 0.0
27/06:00pm 21.9 21.8 17.0 73 3.0 W 13 19 7 10 1018.3 - 0.0
27/05:30pm 22.2 22.0 16.6 70 3.4 W 13 17 7 9 1018.1 1017.7 0.0
27/05:00pm 23.2 22.5 16.3 65 4.2 W 15 19 8 10 1018.1 - 0.0
27/04:30pm 23.6 22.8 16.0 62 4.6 WNW 15 20 8 11 1018.0 - 0.0
27/04:00pm 23.8 23.0 16.1 62 4.7 W 15 22 8 12 1017.9 - 0.0
27/03:30pm 23.8 22.2 15.9 61 4.8 W 19 26 10 14 1018.0 - 0.0
27/03:00pm 23.8 22.0 15.5 59 5.0 W 19 26 10 14 1018.1 - 0.0
27/02:30pm 23.8 22.2 15.9 61 4.8 WNW 19 24 10 13 1018.3 1017.9 0.0
27/02:00pm 24.7 23.2 16.4 60 5.1 W 19 26 10 14 1018.5 - 0.0
27/01:30pm 24.2 22.0 14.8 55 5.6 W 20 30 11 16 1018.7 - 0.0
27/01:00pm 24.4 22.9 15.3 57 5.5 WNW 17 28 9 15 1019.0 - 0.0
27/12:00pm 24.1 22.0 15.3 58 5.3 WNW 20 35 11 19 1019.5 - 0.0
27/11:30am 24.0 21.6 15.4 58 5.2 WNW 22 30 12 16 1019.7 1019.3 0.0
27/11:00am 24.2 22.6 15.0 56 5.5 WNW 17 28 9 15 1019.9 - 0.0
27/10:30am 24.2 22.5 14.8 55 5.6 WNW 17 26 9 14 1020.1 - 0.0
27/10:00am 24.0 24.0 15.2 58 5.3 NNW 9 13 5 7 1020.3 - 0.0
27/09:30am 24.4 24.4 16.2 60 5.0 NNW 11 17 6 9 1020.3 - 0.0
27/09:00am 23.3 22.7 15.7 62 4.6 NW 13 19 7 10 1020.5 - 0.0
27/08:30am 22.5 21.7 15.1 63 4.4 WNW 13 26 7 14 1020.4 1020.0 0.0
27/08:00am 22.4 22.0 15.2 63 4.3 NW 11 17 6 9 1020.3 - 0.0
27/07:30am 21.8 22.1 14.9 65 4.1 NW 7 11 4 6 1020.2 - 0.0
27/07:00am 21.0 21.3 14.9 68 3.6 NNW 7 9 4 5 1020.0 - 0.0
27/06:30am 19.9 20.1 14.8 72 3.0 NNW 7 9 4 5 1019.8 - 0.0
27/06:00am 19.1 19.4 14.5 74 2.7 NNW 6 9 3 5 1019.7 - 0.0
27/05:30am 18.9 19.1 14.2 74 2.7 NNW 6 9 3 5 1019.6 1019.2 0.0
27/05:00am 19.0 19.2 14.3 74 2.7 N 6 7 3 4 1019.5 - 0.0
27/04:30am 19.1 19.3 14.1 73 2.9 ENE 6 7 3 4 1019.3 - 0.0
27/04:00am 19.4 19.3 14.0 71 3.1 N 7 9 4 5 1019.3 - 0.0
27/03:30am 19.4 19.6 14.2 72 3.0 NNW 6 7 3 4 1019.3 - 0.0
27/03:00am 19.7 20.4 14.4 71 3.1 NNW 4 7 2 4 1019.3 - 0.0
27/02:30am 20.1 20.3 14.1 68 3.5 N 6 7 3 4 1019.4 1019.0 0.0
27/02:00am 19.4 19.6 14.2 72 3.0 N 6 7 3 4 1019.6 - 0.0
27/01:30am 19.4 19.7 14.6 74 2.8 N 6 7 3 4 1019.7 - 0.0
27/01:00am 19.6 19.6 14.3 71 3.1 NNE 7 9 4 5 1019.8 - 0.0
27/12:30am 19.3 18.7 13.5 69 3.3 NNE 9 9 5 5 1019.9 - 0.0
27/12:00am 19.6 18.9 13.3 67 3.6 NNE 9 9 5 5 1020.0 - 0.0
 
Date/Time
EDT
Temp
°C
App
Temp
°C
Dew
Point
Rel
Hum
%
Delta-T
°C
Wind Press
QNH
hPa
Press
MSL
hPa
Rain
since 9 am
mm
Dir
 
Spd
km/h
Gust
km/h
Spd
kts
Gust
kts
26/11:30pm 19.6 19.4 13.7 68 3.4 N 7 7 4 4 1020.2 1019.8 0.0
26/11:00pm 19.1 18.9 13.7 71 3.1 N 7 7 4 4 1020.1 - 0.0
26/10:30pm 19.1 19.1 13.5 70 3.2 N 6 7 3 4 1020.3 - 0.0
26/10:00pm 19.2 19.1 13.4 69 3.3 N 6 7 3 4 1020.4 - 0.0
26/09:30pm 19.4 19.1 13.2 67 3.5 NNW 7 9 4 5 1020.4 - 0.0
26/09:00pm 19.6 20.6 13.3 67 3.6 CALM 0 0 0 0 1020.5 - 0.0
26/08:30pm 19.7 20.8 13.6 68 3.5 CALM 0 0 0 0 1020.4 1020.0 0.0
26/08:00pm 19.5 20.7 13.9 70 3.2 CALM 0 0 0 0 1020.3 - 0.0
26/07:30pm 19.7 21.1 14.4 71 3.1 CALM 0 0 0 0 1020.0 - 0.0
26/07:00pm 19.9 21.4 14.6 71 3.1 CALM 0 0 0 0 1019.8 - 0.0
26/06:30pm 20.4 22.0 15.0 71 3.2 CALM 0 0 0 0 1019.4 - 0.0
26/06:00pm 21.5 21.9 14.7 65 4.0 W 6 9 3 5 1019.3 - 0.0
26/05:30pm 22.7 22.8 14.4 59 4.9 W 7 9 4 5 1019.1 1018.7 0.0
26/05:00pm 23.4 22.6 14.0 55 5.5 W 11 15 6 8 1019.0 - 0.0
26/04:30pm 23.9 23.1 14.1 54 5.8 WSW 11 17 6 9 1019.0 - 0.0
26/04:00pm 24.4 24.3 13.9 52 6.2 WNW 7 13 4 7 1019.0 - 0.0
26/03:30pm 25.0 25.1 13.8 49 6.6 WNW 6 11 3 6 1019.0 - 0.0
26/03:00pm 25.3 24.4 14.8 52 6.3 W 13 17 7 9 1019.1 - 0.0
26/02:30pm 24.7 24.8 14.5 53 6.1 N 7 20 4 11 1019.2 1018.8 0.0
26/02:00pm 23.8 23.2 14.5 56 5.5 WNW 11 17 6 9 1019.5 - 0.0
26/01:30pm 23.6 23.4 14.7 57 5.3 N 9 15 5 8 1019.6 - 0.0
26/01:00pm 24.1 23.1 14.5 55 5.7 NNE 13 19 7 10 1019.8 - 0.0
26/12:30pm 24.5 23.5 14.6 54 5.9 NE 13 20 7 11 1020.2 - 0.0
26/12:00pm 24.6 23.4 13.9 51 6.3 N 13 20 7 11 1020.4 - 0.0
26/11:30am 24.3 22.7 13.9 52 6.1 NNE 15 26 8 14 1020.6 1020.2 0.0
26/11:00am 23.8 22.3 14.1 54 5.7 NNE 15 24 8 13 1021.0 - 0.0
26/10:30am 24.2 22.1 13.6 51 6.2 NNE 17 24 9 13 1021.2 - 0.0
26/10:00am 24.9 23.4 14.1 51 6.4 NE 15 24 8 13 1021.2 - 0.0
26/09:30am 24.3 22.8 13.1 49 6.5 NE 13 19 7 10 1021.3 - 0.0
26/09:00am 23.4 21.9 13.2 52 5.9 NNE 13 19 7 10 1021.3 - 0.0

Other Formats:

Comma delimited format used in spreadsheet applications
http://www.bom.gov.au/fwo/IDN60801/IDN60801.94996.axf

JavaScript Object Notation format (JSON) in row-major order
http://www.bom.gov.au/fwo/IDN60801/IDN60801.94996.json